Meath Environmental Platform

Observations for Trim Market St

Time AQI Temp °C Hum % Pres Pa CO μg/m³ H₂S μg/m³ NO μg/m³ NO₂ μg/m³ O₃ μg/m³ SO₂ μg/m³ PM1 μg/m³ PM2.5 μg/m³ PM10 μg/m³
Monday 13 July 2026
07:23 1 20.8 67 56,845 0.13 0 0.36 0 7.27 0 2.14 4.18 6.88
07:22 1 20.7 67 56,762 0.13 0 0 0 1.81 0 2.14 3.68 5.6
07:21 1 20.6 68 56,675 0.14 0 0 0 4.61 0 1.43 3.17 4.96
07:20 1 20.6 68 56,573 0.15 0 0.08 0 1.79 0 2.14 4.14 6.89
07:19 1 20.5 68 56,443 0.16 0 0 0 4.29 0 3.56 4.61 10.08
07:18 1 20.5 68 56,294 0.15 0 0 0 9.88 0 3.56 5.57 8.8
07:16 1 20.3 69 56,128 0.16 0 0.94 0 6.28 0 2.14 4.08 6.9
07:15 1 20.2 69 55,953 0.17 0 0 0 2.93 0 3.56 5.52 8.79
07:14 1 20.2 70 55,760 0.17 0 0 0 7.15 0 2.85 5.02 8.16
07:11 1 20 70 55,094 0.18 0 0 0 4.5 0 2.85 4.01 6.91
07:01 1 19.3 73 51,126 0.16 0 0.89 2.68 10.71 0 1.43 3.4 6.92
06:59 1 19.1 73 50,042 0.16 0 2.63 4.08 7.65 0 1.43 3.38 6.32
06:58 1 19.1 74 49,355 0.17 0 0 1.65 9.22 0 1.43 2.89 5.71
06:57 1 19 74 48,666 0.2 0 0.36 3.16 6.1 0 0.71 1.44 3.3
06:56 1 19 74 47,859 0.16 0 0 1.75 12.02 0 1.43 3.36 6.93
06:55 1 18.9 74 47,035 0.17 0 0 2.95 11.33 0 0.71 3.35 6.93
06:54 1 18.8 74 46,162 0.18 0 0 2.87 9.17 0 1.43 3.34 7.53
06:53 1 18.8 74 45,331 0.17 0 0 1.74 14.36 0 1.43 3.33 6.93
06:50 1 18.6 75 42,289 0.17 0 0 2.14 11.56 0 2.14 3.79 6.93
06:49 1 18.5 75 41,124 0.16 0 1.08 2.25 11.7 0 2.14 3.78 6.93